Time;durP1;ratioP1;P1;durP2;ratioP2;P2;SDS_P1;SDS_P2;PMS_P1;PMS_P2;Temp;Humidity;BMP_temperature;BMP_pressure;BME280_temperature;BME280_humidity;BME280_pressure;Samples;Min_cycle;Max_cycle;Signal;HPM_P1;HPM_P2
2021/08/26 00:07:37;;;;;;;23.90;3.88;;;;;;;12.47;100.00;100139.66;5039279;28;20067;-80
2021/08/26 00:10:07;;;;;;;23.35;3.70;;;;;;;12.50;100.00;100144.78;5037575;28;20033;-80
2021/08/26 00:12:37;;;;;;;22.55;3.70;;;;;;;12.49;100.00;100148.25;5038423;28;20022;-80
2021/08/26 00:15:03;;;;;;;18.45;3.83;;;;;;;12.49;100.00;100143.03;5038251;28;20493;-80
2021/08/26 00:17:28;;;;;;;18.13;2.88;;;;;;;12.50;100.00;100139.56;5039357;28;20036;-80
2021/08/26 00:19:53;;;;;;;25.38;4.57;;;;;;;12.51;100.00;100141.25;5039075;28;20033;-80
2021/08/26 00:22:19;;;;;;;16.30;3.65;;;;;;;12.52;100.00;100142.09;5038135;28;20052;-80
2021/08/26 00:24:45;;;;;;;22.92;3.60;;;;;;;12.52;100.00;100135.13;5039968;28;20375;-80
2021/08/26 00:27:10;;;;;;;19.80;3.47;;;;;;;12.54;100.00;100129.91;5038669;28;20036;-79
2021/08/26 00:29:36;;;;;;;21.02;4.18;;;;;;;12.53;100.00;100128.19;5039361;28;20048;-80
2021/08/26 00:32:01;;;;;;;28.23;5.10;;;;;;;12.57;100.00;100127.19;5038141;28;20025;-80
2021/08/26 00:34:26;;;;;;;28.30;5.20;;;;;;;12.57;100.00;100130.66;5037551;28;20437;-79
2021/08/26 00:36:51;;;;;;;22.40;3.53;;;;;;;12.53;100.00;100128.19;5037992;28;20112;-80
2021/08/26 00:39:17;;;;;;;22.67;3.85;;;;;;;12.55;100.00;100126.41;5039152;28;20037;-80
2021/08/26 00:41:42;;;;;;;24.55;4.03;;;;;;;12.57;100.00;100117.63;5039855;28;20440;-80
2021/08/26 00:44:07;;;;;;;22.58;4.28;;;;;;;12.58;100.00;100118.50;5038132;28;20032;-80
2021/08/26 00:46:33;;;;;;;21.20;3.45;;;;;;;12.57;100.00;100112.44;5037916;28;20387;-80
2021/08/26 00:48:58;;;;;;;26.90;4.47;;;;;;;12.56;100.00;100113.34;5039235;28;20021;-80
2021/08/26 00:51:23;;;;;;;22.70;3.60;;;;;;;12.57;100.00;100104.63;5039385;28;20031;-80
2021/08/26 00:53:51;;;;;;;29.08;4.07;;;;;;;12.54;100.00;100109.94;5038100;28;20390;-80
2021/08/26 00:56:16;;;;;;;25.10;4.40;;;;;;;12.55;100.00;100108.19;5037561;28;20040;-80
2021/08/26 00:58:49;;;;;;;29.77;3.90;;;;;;;12.57;100.00;100102.03;5039009;28;20069;-80
2021/08/26 01:01:27;;;;;;;23.73;3.85;;;;;;;12.57;100.00;100101.19;5037828;28;20021;-80
2021/08/26 01:03:59;;;;;;;23.58;3.95;;;;;;;12.60;100.00;100096.72;5039155;28;20029;-80
2021/08/26 01:06:29;;;;;;;22.70;4.57;;;;;;;12.66;100.00;100090.47;5039705;28;20029;-80
2021/08/26 01:09:09;;;;;;;20.48;3.88;;;;;;;12.64;100.00;100093.09;5037867;28;20022;-80
2021/08/26 01:11:35;;;;;;;27.30;4.15;;;;;;;12.64;100.00;100092.25;5037112;28;20041;-80
2021/08/26 01:14:03;;;;;;;25.88;4.28;;;;;;;12.64;100.00;100095.72;5040576;28;20021;-80
2021/08/26 01:16:28;;;;;;;24.83;3.75;;;;;;;12.64;100.00;100100.91;5039366;28;20037;-80
2021/08/26 01:18:54;;;;;;;26.15;4.25;;;;;;;12.67;100.00;100099.97;5040281;28;20030;-80
2021/08/26 01:21:21;;;;;;;20.77;3.72;;;;;;;12.66;100.00;100101.72;5037008;28;20047;-80
2021/08/26 01:23:51;;;;;;;24.65;4.65;;;;;;;12.72;100.00;100097.22;5036026;28;20025;-80
2021/08/26 01:26:26;;;;;;;28.08;4.95;;;;;;;12.72;100.00;100099.81;5036309;28;20430;-80
2021/08/26 01:28:54;;;;;;;25.98;4.10;;;;;;;12.71;100.00;100103.31;5038266;28;20025;-80
2021/08/26 01:31:20;;;;;;;23.30;4.53;;;;;;;12.69;100.00;100092.97;5038728;28;20022;-80
2021/08/26 01:33:48;;;;;;;24.50;3.65;;;;;;;12.70;100.00;100084.25;5038203;28;20077;-80
2021/08/26 01:36:14;;;;;;;20.83;3.78;;;;;;;12.70;100.00;100086.84;5037918;28;20075;-80
2021/08/26 01:38:39;;;;;;;27.13;4.95;;;;;;;12.72;100.00;100089.41;5036303;28;20029;-80
2021/08/26 01:41:05;;;;;;;31.13;5.57;;;;;;;12.70;100.00;100088.59;5038328;28;20032;-80
2021/08/26 01:43:33;;;;;;;28.25;4.47;;;;;;;12.69;100.00;100084.31;5037448;28;20087;-80
2021/08/26 01:45:58;;;;;;;26.02;4.50;;;;;;;12.66;100.00;100083.50;5035840;28;20135;-80
2021/08/26 01:48:24;;;;;;;25.98;5.00;;;;;;;12.66;100.00;100082.66;5037785;28;20491;-80
2021/08/26 01:50:50;;;;;;;27.77;4.07;;;;;;;12.64;100.00;100085.31;5036618;28;20036;-80
2021/08/26 01:53:16;;;;;;;25.55;4.32;;;;;;;12.61;100.00;100085.41;5038449;28;20026;-80
2021/08/26 01:55:42;;;;;;;27.50;5.40;;;;;;;12.55;100.00;100082.16;5039100;28;20025;-80
2021/08/26 01:58:09;;;;;;;28.52;4.13;;;;;;;12.53;100.00;100082.22;5036945;28;20445;-80
2021/08/26 02:00:34;;;;;;;29.17;4.18;;;;;;;12.54;100.00;100083.09;5038341;28;20072;-80
2021/08/26 02:03:00;;;;;;;27.67;4.68;;;;;;;12.56;100.00;100084.72;5037615;28;20030;-80
2021/08/26 02:05:25;;;;;;;21.42;3.92;;;;;;;12.53;100.00;100081.34;5038944;28;20033;-80
2021/08/26 02:07:53;;;;;;;26.67;4.18;;;;;;;12.50;100.00;100089.25;5036637;28;20125;-80
2021/08/26 02:10:19;;;;;;;28.60;5.60;;;;;;;12.50;100.00;100089.25;5035479;28;20152;-80
2021/08/26 02:12:44;;;;;;;37.75;5.55;;;;;;;12.54;100.00;100088.28;5038203;28;20057;-80
2021/08/26 02:15:10;;;;;;;23.05;4.15;;;;;;;12.56;100.00;100095.13;5060021;22;20037;-82
2021/08/26 02:17:35;;;;;;;33.67;4.45;;;;;;;12.52;100.00;100088.31;5039219;28;20025;-82
2021/08/26 02:20:03;;;;;;;33.67;6.38;;;;;;;12.51;100.00;100081.44;5038316;28;20087;-83
2021/08/26 02:22:29;;;;;;;26.27;4.55;;;;;;;12.52;100.00;100077.06;5037382;28;20501;-83
2021/08/26 02:24:54;;;;;;;23.88;4.07;;;;;;;12.54;100.00;100077.88;5037289;28;20026;-83
2021/08/26 02:27:19;;;;;;;31.30;5.65;;;;;;;12.58;100.00;100074.25;5037758;28;20036;-83
2021/08/26 02:29:44;;;;;;;24.63;4.80;;;;;;;12.57;100.00;100073.41;5038450;28;20033;-83
2021/08/26 02:32:10;;;;;;;27.58;5.03;;;;;;;12.55;100.00;100072.59;5039154;28;20032;-83
2021/08/26 02:34:35;;;;;;;27.35;5.55;;;;;;;12.54;100.00;100073.53;5038500;28;20052;-82
2021/08/26 02:37:00;;;;;;;38.67;6.22;;;;;;;12.50;100.00;100071.94;5038638;28;20382;-83
2021/08/26 02:39:26;;;;;;;24.90;5.07;;;;;;;12.47;100.00;100063.34;5039654;28;20052;-83
2021/08/26 02:41:51;;;;;;;29.95;5.55;;;;;;;12.42;100.00;100068.72;5038841;28;20390;-83
2021/08/26 02:44:16;;;;;;;27.67;4.80;;;;;;;12.35;100.00;100064.66;5038826;28;20112;-83
2021/08/26 02:46:42;;;;;;;40.38;6.13;;;;;;;12.32;100.00;100063.00;5040878;28;20025;-83
2021/08/26 02:49:07;;;;;;;25.70;5.72;;;;;;;12.32;100.00;100062.16;5039953;28;20393;-83
2021/08/26 02:51:32;;;;;;;26.25;4.45;;;;;;;12.27;100.00;100071.84;5039951;28;20025;-83
2021/08/26 02:53:58;;;;;;;28.45;5.00;;;;;;;12.28;100.00;100070.94;5039327;28;20022;-83
2021/08/26 02:56:23;;;;;;;26.23;4.60;;;;;;;12.27;100.00;100070.09;5038086;28;20026;-83
2021/08/26 02:58:48;;;;;;;26.77;4.60;;;;;;;12.27;100.00;100072.69;5039213;28;20018;-83
2021/08/26 03:01:13;;;;;;;25.55;4.95;;;;;;;12.26;100.00;100070.16;5040111;28;20079;-83
2021/08/26 03:03:39;;;;;;;29.08;5.13;;;;;;;12.29;100.00;100075.25;5039156;28;20508;-83
2021/08/26 03:06:04;;;;;;;34.65;5.47;;;;;;;12.30;100.00;100079.53;5038378;28;20029;-82
2021/08/26 03:08:33;;;;;;;28.52;4.78;;;;;;;12.28;100.00;100081.34;5037826;28;20029;-82
2021/08/26 03:10:59;;;;;;;23.13;5.03;;;;;;;12.26;100.00;100076.19;5038865;28;20057;-82
2021/08/26 03:13:24;;;;;;;27.65;4.80;;;;;;;12.23;100.00;100071.09;5038316;28;20029;-82
2021/08/26 03:15:49;;;;;;;25.85;4.55;;;;;;;12.25;100.00;100071.03;5039002;28;20022;-82
2021/08/26 03:18:15;;;;;;;30.45;4.53;;;;;;;12.26;100.00;100070.16;5037950;28;20029;-82
2021/08/26 03:20:40;;;;;;;25.80;4.95;;;;;;;12.23;100.00;100078.06;5038417;28;20045;-82
2021/08/26 03:23:06;;;;;;;24.30;4.90;;;;;;;12.28;100.00;100079.56;5038993;28;20600;-82
2021/08/26 03:25:32;;;;;;;33.75;5.53;;;;;;;12.29;100.00;100070.06;5038301;28;20503;-82
2021/08/26 03:27:57;;;;;;;26.00;4.72;;;;;;;12.24;100.00;100066.75;5039793;28;20026;-82
2021/08/26 03:30:23;;;;;;;26.33;4.20;;;;;;;12.24;100.00;100065.00;5037899;28;20413;-82
2021/08/26 03:32:48;;;;;;;30.17;4.18;;;;;;;12.21;100.00;100067.69;5035295;28;20103;-82
2021/08/26 03:35:13;;;;;;;30.90;4.57;;;;;;;12.18;100.00;100060.00;5034681;28;20026;-82
2021/08/26 03:37:38;;;;;;;25.77;4.07;;;;;;;12.18;100.00;100062.59;5034679;28;20358;-82
2021/08/26 03:40:04;;;;;;;22.70;4.22;;;;;;;12.16;100.00;100064.38;5035097;28;20503;-82
2021/08/26 03:42:30;;;;;;;27.20;4.50;;;;;;;12.14;100.00;100059.25;5036602;28;20022;-82
2021/08/26 03:44:55;;;;;;;25.27;5.32;;;;;;;12.17;100.00;100053.09;5037312;28;20034;-82
2021/08/26 03:47:20;;;;;;;23.30;4.80;;;;;;;12.14;100.00;100061.84;5039539;28;20043;-83
2021/08/26 03:49:46;;;;;;;23.15;3.97;;;;;;;12.16;100.00;100069.56;5037766;28;20025;-83
2021/08/26 03:52:11;;;;;;;30.55;4.78;;;;;;;12.16;100.00;100066.97;5040823;28;20025;-83
2021/08/26 03:54:37;;;;;;;27.60;4.72;;;;;;;12.17;100.00;100063.50;5038078;28;20032;-83
2021/08/26 03:57:02;;;;;;;29.63;5.63;;;;;;;12.17;100.00;100066.09;5038428;28;20108;-82
2021/08/26 03:59:27;;;;;;;25.25;4.38;;;;;;;12.16;100.00;100074.78;5040198;28;20025;-82
2021/08/26 04:01:53;;;;;;;25.88;4.22;;;;;;;12.17;100.00;100084.31;5038965;28;20393;-82
2021/08/26 04:04:18;;;;;;;27.23;4.65;;;;;;;12.15;100.00;100073.94;5040766;28;20046;-82
2021/08/26 04:06:43;;;;;;;35.30;5.10;;;;;;;12.13;100.00;100073.16;5038752;28;20481;-82
2021/08/26 04:09:08;;;;;;;36.92;6.15;;;;;;;12.14;100.00;100072.25;5040256;28;20025;-82
2021/08/26 04:11:34;;;;;;;23.08;4.35;;;;;;;12.14;100.00;100085.25;5038450;28;20044;-82
2021/08/26 04:13:59;;;;;;;28.23;5.65;;;;;;;12.19;100.00;100077.28;5039935;28;20033;-82
2021/08/26 04:16:24;;;;;;;33.42;4.65;;;;;;;12.18;100.00;100073.00;5037833;28;20044;-82
2021/08/26 04:18:49;;;;;;;29.27;4.32;;;;;;;12.20;100.00;100068.59;5038637;28;20029;-83
2021/08/26 04:21:15;;;;;;;26.90;4.70;;;;;;;12.19;100.00;100062.56;5038045;28;20555;-83
2021/08/26 04:23:40;;;;;;;34.63;4.32;;;;;;;12.18;100.00;100060.84;5037260;28;20031;-83
2021/08/26 04:26:05;;;;;;;31.92;4.70;;;;;;;12.18;100.00;100060.84;5038318;28;20032;-83
2021/08/26 04:28:30;;;;;;;38.50;5.75;;;;;;;12.24;100.00;100056.34;5039149;28;20496;-82
2021/08/26 04:30:56;;;;;;;27.45;4.88;;;;;;;12.21;100.00;100065.94;5039105;28;20021;-82
2021/08/26 04:33:21;;;;;;;32.25;4.80;;;;;;;12.26;100.00;100071.00;5038258;28;20118;-83
2021/08/26 04:35:46;;;;;;;28.40;5.10;;;;;;;12.29;100.00;100060.50;5038092;28;20041;-82
2021/08/26 04:38:12;;;;;;;26.35;5.05;;;;;;;12.29;100.00;100064.84;5039363;28;20082;-82
2021/08/26 04:40:37;;;;;;;29.90;5.38;;;;;;;12.32;100.00;100062.16;5039895;28;20032;-82
2021/08/26 04:43:03;;;;;;;32.90;4.18;;;;;;;12.34;100.00;100057.72;5039030;28;20025;-82
2021/08/26 04:45:29;;;;;;;24.77;4.75;;;;;;;12.32;100.00;100065.59;5039566;28;20025;-82
2021/08/26 04:47:54;;;;;;;28.63;5.70;;;;;;;12.38;100.00;100051.53;5038790;28;20436;-82
2021/08/26 04:50:19;;;;;;;27.52;4.55;;;;;;;12.37;100.00;100052.41;5038933;28;20564;-82
2021/08/26 04:52:44;;;;;;;32.88;5.18;;;;;;;12.40;100.00;100066.16;5039810;28;20109;-83
2021/08/26 04:55:10;;;;;;;29.38;4.50;;;;;;;12.42;100.00;100060.94;5037612;28;20021;-83
2021/08/26 04:57:35;;;;;;;25.65;4.18;;;;;;;12.44;100.00;100064.34;5038415;28;20078;-82
2021/08/26 05:00:01;;;;;;;29.75;4.43;;;;;;;12.47;100.00;100059.03;5040423;28;20029;-83
2021/08/26 05:02:26;;;;;;;26.48;4.85;;;;;;;12.49;100.00;100056.38;5039871;28;20104;-83
2021/08/26 05:04:51;;;;;;;24.75;5.07;;;;;;;12.50;100.00;100058.94;5039624;28;20040;-82
2021/08/26 05:07:16;;;;;;;31.15;4.15;;;;;;;12.48;100.00;100057.28;5039326;28;20029;-82
2021/08/26 05:09:42;;;;;;;25.30;3.90;;;;;;;12.50;100.00;100065.84;5040459;28;20018;-82
2021/08/26 05:12:08;;;;;;;27.67;4.40;;;;;;;12.50;100.00;100061.53;5039323;28;20057;-82
2021/08/26 05:14:34;;;;;;;31.42;4.70;;;;;;;12.51;100.00;100063.22;5040219;28;20030;-82
2021/08/26 05:16:59;;;;;;;28.38;4.07;;;;;;;12.56;100.00;100069.13;5039684;28;20029;-83
2021/08/26 05:19:25;;;;;;;22.67;4.95;;;;;;;12.61;100.00;100068.94;5037018;28;20139;-83
2021/08/26 05:21:50;;;;;;;24.27;4.45;;;;;;;12.63;100.00;100080.16;5035689;28;20028;-83
2021/08/26 05:24:16;;;;;;;25.27;4.35;;;;;;;12.67;100.00;100081.75;5033916;28;20394;-84
2021/08/26 05:26:41;;;;;;;31.35;4.63;;;;;;;12.72;100.00;100084.22;5034304;28;20385;-83
2021/08/26 05:29:07;;;;;;;26.17;4.57;;;;;;;12.72;100.00;100071.19;5034542;28;20021;-83
2021/08/26 05:31:32;;;;;;;23.73;3.92;;;;;;;12.79;100.00;100054.44;5033895;28;20029;-83
2021/08/26 05:33:58;;;;;;;28.70;5.38;;;;;;;12.85;100.00;100062.03;5034085;28;20359;-83
2021/08/26 05:36:23;;;;;;;24.17;4.10;;;;;;;12.87;100.00;100060.25;5035149;28;20028;-84
2021/08/26 05:38:48;;;;;;;27.85;4.90;;;;;;;12.90;100.00;100068.78;5037327;28;20549;-83
2021/08/26 05:41:14;;;;;;;23.92;4.15;;;;;;;12.93;100.00;100062.63;5039759;28;20037;-83
2021/08/26 05:43:39;;;;;;;25.38;4.63;;;;;;;12.98;100.00;100052.88;5038259;28;20087;-83
2021/08/26 05:46:05;;;;;;;19.60;4.38;;;;;;;12.99;100.00;100052.00;5036384;28;20393;-83
2021/08/26 05:48:31;;;;;;;21.05;3.78;;;;;;;12.97;100.00;100064.22;5035403;28;20075;-83
2021/08/26 05:50:56;;;;;;;24.17;4.35;;;;;;;12.99;100.00;100062.41;5036926;28;20037;-83
2021/08/26 05:53:21;;;;;;;22.60;4.15;;;;;;;13.01;100.00;100064.94;5035922;28;20421;-83
2021/08/26 05:55:47;;;;;;;26.30;4.75;;;;;;;13.07;100.00;100068.16;5036595;28;20112;-83
2021/08/26 05:58:13;;;;;;;25.08;4.28;;;;;;;13.05;100.00;100080.41;5036565;28;20414;-83
2021/08/26 06:00:38;;;;;;;30.30;4.15;;;;;;;13.07;100.00;100075.97;5036106;28;20029;-83
2021/08/26 06:03:04;;;;;;;22.40;4.05;;;;;;;13.11;100.00;100081.91;5037065;28;20034;-83
2021/08/26 06:05:29;;;;;;;18.00;4.15;;;;;;;13.12;100.00;100087.09;5037586;28;20036;-83
2021/08/26 06:07:54;;;;;;;18.48;3.40;;;;;;;13.19;100.00;100071.25;5037878;28;20049;-83
2021/08/26 06:10:19;;;;;;;28.25;4.45;;;;;;;13.32;100.00;100073.34;5036560;28;20039;-83
2021/08/26 06:12:45;;;;;;;20.27;3.85;;;;;;;13.62;100.00;100077.47;5038436;28;20031;-83
2021/08/26 06:15:12;;;;;;;23.23;4.57;;;;;;;13.41;100.00;100072.16;5038262;28;20029;-82
2021/08/26 06:17:37;;;;;;;19.67;4.30;;;;;;;13.31;100.00;100069.06;5036397;28;20120;-83
2021/08/26 06:20:05;;;;;;;20.83;3.80;;;;;;;13.39;100.00;100068.75;5037415;28;20029;-83
2021/08/26 06:22:30;;;;;;;23.90;4.53;;;;;;;13.49;100.00;100074.50;5035903;28;20018;-83
2021/08/26 06:24:55;;;;;;;20.55;3.78;;;;;;;13.63;100.00;100079.16;5036359;28;20036;-83
2021/08/26 06:27:20;;;;;;;26.35;4.60;;;;;;;13.56;100.00;100081.16;5038240;28;20052;-83
2021/08/26 06:29:46;;;;;;;21.35;3.72;;;;;;;13.51;100.00;100096.09;5037456;28;20405;-82
2021/08/26 06:32:11;;;;;;;22.30;3.42;;;;;;;13.45;100.00;100099.78;5038903;28;20100;-82
2021/08/26 06:34:36;;;;;;;19.30;3.65;;;;;;;13.42;100.00;100102.50;5038970;28;20021;-82
2021/08/26 06:37:01;;;;;;;15.13;3.40;;;;;;;13.40;100.00;100119.97;5038182;28;20075;-83
2021/08/26 06:39:27;;;;;;;20.98;5.10;;;;;;;13.42;100.00;100125.09;5037676;28;20021;-82
2021/08/26 06:41:52;;;;;;;21.02;4.18;;;;;;;13.40;100.00;100135.59;5039300;28;20393;-82
2021/08/26 06:44:18;;;;;;;23.42;3.83;;;;;;;13.36;100.00;100144.41;5039650;28;20068;-83
2021/08/26 06:46:44;;;;;;;30.45;4.78;;;;;;;13.32;100.00;100154.09;5037562;28;20022;-83
2021/08/26 06:49:09;;;;;;;34.60;4.88;;;;;;;13.33;100.00;100147.13;5038247;28;20473;-82
2021/08/26 06:51:34;;;;;;;21.45;3.38;;;;;;;13.37;100.00;100133.09;5038314;28;20053;-83
2021/08/26 06:53:59;;;;;;;19.17;4.05;;;;;;;13.36;100.00;100123.56;5037661;28;20077;-83
2021/08/26 06:56:25;;;;;;;18.92;3.15;;;;;;;13.35;100.00;100130.53;5037269;28;20474;-83
2021/08/26 06:58:50;;;;;;;25.27;4.22;;;;;;;13.43;100.00;100125.06;5033476;28;20044;-83
2021/08/26 07:01:15;;;;;;;20.05;3.95;;;;;;;13.48;100.00;100104.03;5034695;28;20040;-83
2021/08/26 07:03:41;;;;;;;14.77;3.08;;;;;;;13.55;100.00;100093.34;5035155;28;20423;-82
2021/08/26 07:06:06;;;;;;;16.48;3.30;;;;;;;13.59;100.00;100088.84;5035725;28;20051;-83
2021/08/26 07:08:31;;;;;;;17.92;4.03;;;;;;;13.71;100.00;100095.38;5038245;28;20030;-82
2021/08/26 07:10:57;;;;;;;22.15;4.10;;;;;;;13.73;100.00;100106.56;5036675;28;20044;-82
2021/08/26 07:13:22;;;;;;;15.70;2.80;;;;;;;13.69;100.00;100111.03;5037716;28;20022;-82
2021/08/26 07:15:48;;;;;;;15.57;3.00;;;;;;;13.60;100.00;100121.81;5038976;28;20033;-83
2021/08/26 07:18:17;;;;;;;19.20;3.20;;;;;;;13.59;100.00;100118.38;5036440;28;20367;-83
2021/08/26 07:20:43;;;;;;;16.13;3.30;;;;;;;13.61;100.00;100117.44;5037373;28;20405;-83
2021/08/26 07:23:08;;;;;;;16.73;2.55;;;;;;;13.64;100.00;100118.22;5042142;28;20075;-83
2021/08/26 07:25:33;;;;;;;18.77;2.80;;;;;;;13.74;100.00;100118.69;5039796;28;20030;-83
2021/08/26 07:27:59;;;;;;;17.55;3.13;;;;;;;13.87;100.00;100113.84;5039655;28;20115;-82
2021/08/26 07:30:24;;;;;;;17.88;3.10;;;;;;;13.99;100.00;100100.34;5039304;28;20029;-83
2021/08/26 07:32:49;;;;;;;14.07;2.92;;;;;;;13.90;100.00;100088.50;5039304;28;20413;-83
2021/08/26 07:35:14;;;;;;;17.63;2.85;;;;;;;14.14;100.00;100091.91;5041398;28;20029;-83
2021/08/26 07:37:40;;;;;;;14.57;2.92;;;;;;;14.98;100.00;100084.06;5041146;28;20027;-83
2021/08/26 07:40:05;;;;;;;13.75;2.53;;;;;;;16.45;100.00;100093.72;5041160;28;20017;-83
2021/08/26 07:42:31;;;;;;;14.07;2.92;;;;;;;17.23;100.00;100101.97;5041643;28;20032;-82
2021/08/26 07:45:02;;;;;;;10.77;2.25;;;;;;;17.99;100.00;100101.38;5040351;28;20032;-82
2021/08/26 07:47:28;;;;;;;11.88;2.05;;;;;;;17.55;100.00;100097.63;5039953;28;20490;-82
2021/08/26 07:49:54;;;;;;;13.85;2.80;;;;;;;17.42;100.00;100094.81;5039854;28;20393;-83
2021/08/26 07:52:19;;;;;;;11.98;2.35;;;;;;;16.58;100.00;100093.94;5039710;28;20022;-83
2021/08/26 07:54:44;;;;;;;12.10;2.25;;;;;;;15.77;100.00;100101.38;5039553;28;20095;-83
2021/08/26 07:57:09;;;;;;;7.45;1.77;;;;;;;15.18;100.00;100097.94;5039154;28;20029;-83
2021/08/26 07:59:35;;;;;;;11.57;2.72;;;;;;;15.09;100.00;100084.47;5039912;28;20493;-83
2021/08/26 08:02:00;;;;;;;11.95;2.40;;;;;;;14.93;100.00;100085.13;5040907;28;20116;-83
2021/08/26 08:04:25;;;;;;;11.85;2.30;;;;;;;14.79;100.00;100099.69;5040357;28;20025;-83
2021/08/26 08:06:50;;;;;;;9.93;2.10;;;;;;;15.03;100.00;100090.78;5039010;28;20032;-83
2021/08/26 08:09:16;;;;;;;12.73;2.17;;;;;;;15.10;100.00;100099.19;5038559;28;20032;-83
2021/08/26 08:11:41;;;;;;;8.55;1.65;;;;;;;14.99;100.00;100101.44;5039736;28;20027;-83
2021/08/26 08:14:06;;;;;;;13.52;2.17;;;;;;;14.86;100.00;100095.91;5040258;28;20351;-83
2021/08/26 08:16:31;;;;;;;10.95;2.13;;;;;;;14.97;100.00;100096.28;5073667;22;20049;-78
2021/08/26 08:18:57;;;;;;;13.98;1.83;;;;;;;14.84;100.00;100108.16;5056580;28;20029;-78
2021/08/26 08:21:22;;;;;;;12.00;2.25;;;;;;;14.84;100.00;100106.44;5057034;28;20137;-77
2021/08/26 08:23:47;;;;;;;12.75;2.08;;;;;;;14.71;100.00;100105.22;5055738;28;20101;-78
2021/08/26 08:26:12;;;;;;;10.05;1.42;;;;;;;14.58;100.00;100106.66;5055806;28;20025;-78
2021/08/26 08:28:38;;;;;;;11.57;2.03;;;;;;;14.50;100.00;100114.78;5055449;28;20527;-77
2021/08/26 08:31:05;;;;;;;9.90;2.00;;;;;;;14.63;100.00;100121.22;5057347;28;20048;-77
2021/08/26 08:33:31;;;;;;;9.52;1.50;;;;;;;14.63;100.00;100117.78;5056874;28;20021;-77
2021/08/26 08:35:56;;;;;;;8.10;1.85;;;;;;;14.58;100.00;100122.31;5056501;28;20469;-78
2021/08/26 08:38:21;;;;;;;9.32;1.95;;;;;;;14.60;100.00;100126.56;5054784;28;20028;-77
2021/08/26 08:40:47;;;;;;;13.77;1.85;;;;;;;14.55;100.00;100119.84;5056131;28;20021;-77
2021/08/26 08:43:12;;;;;;;10.45;1.75;;;;;;;14.52;100.00;100120.81;5056237;28;20473;-77
2021/08/26 08:45:38;;;;;;;10.82;2.42;;;;;;;14.56;100.00;100125.00;5054763;28;20044;-77
2021/08/26 08:48:05;;;;;;;6.55;1.70;;;;;;;14.73;100.00;100126.91;5056701;28;20389;-78
2021/08/26 08:50:31;;;;;;;7.20;1.75;;;;;;;14.51;100.00;100121.75;5056056;28;20056;-77
2021/08/26 08:52:57;;;;;;;15.20;2.17;;;;;;;14.63;100.00;100131.66;5054969;28;20021;-78
2021/08/26 08:55:22;;;;;;;9.38;1.70;;;;;;;14.70;100.00;100133.09;5055062;28;20386;-77
2021/08/26 08:57:47;;;;;;;9.15;1.73;;;;;;;14.83;100.00;100143.03;5054962;28;20047;-77
2021/08/26 09:00:16;;;;;;;8.60;1.75;;;;;;;14.81;100.00;100142.22;5053493;28;20025;-78
2021/08/26 09:02:41;;;;;;;9.73;1.92;;;;;;;14.81;100.00;100134.41;5053498;28;20044;-77
2021/08/26 09:05:07;;;;;;;9.40;1.90;;;;;;;14.87;100.00;100132.41;5054554;28;20509;-77
2021/08/26 09:07:34;;;;;;;9.23;1.63;;;;;;;15.00;100.00;100134.50;5053442;28;20032;-77
2021/08/26 09:10:00;;;;;;;10.02;2.08;;;;;;;15.33;100.00;100143.47;5054795;28;20060;-77
2021/08/26 09:12:41;;;;;;;10.30;1.85;;;;;;;17.55;100.00;100157.06;5054511;28;20417;-77
2021/08/26 09:15:08;;;;;;;11.45;1.80;;;;;;;17.37;100.00;100149.28;5054765;28;20024;-77
2021/08/26 09:17:33;;;;;;;7.40;1.48;;;;;;;17.38;100.00;100144.88;5054458;28;20060;-77
2021/08/26 09:20:10;;;;;;;11.25;2.08;;;;;;;16.99;100.00;100140.78;5054443;28;20055;-77
2021/08/26 09:22:36;;;;;;;8.68;1.58;;;;;;;17.37;100.00;100135.34;5054353;28;20028;-77
2021/08/26 09:25:03;;;;;;;7.20;1.50;;;;;;;17.62;100.00;100135.69;5054340;28;20474;-77
2021/08/26 09:27:31;;;;;;;11.75;2.00;;;;;;;19.41;89.17;100132.41;5054179;28;20029;-77
2021/08/26 09:30:03;;;;;;;12.07;2.42;;;;;;;19.21;92.62;100125.75;5054393;28;20025;-78
2021/08/26 09:32:36;;;;;;;10.02;1.60;;;;;;;18.82;88.99;100124.56;5054581;28;20033;-78
2021/08/26 09:35:11;;;;;;;9.15;2.08;;;;;;;20.66;80.29;100130.59;5052886;28;20016;-78
2021/08/26 09:37:42;;;;;;;9.32;1.95;;;;;;;20.23;78.07;100126.34;5054238;28;20021;-78
2021/08/26 09:40:09;;;;;;;6.30;1.25;;;;;;;20.29;74.37;100126.84;5052819;28;20124;-78
2021/08/26 09:42:34;;;;;;;7.20;1.40;;;;;;;19.21;82.88;100132.75;5053997;28;20051;-78
2021/08/26 09:45:21;;;;;;;7.88;1.42;;;;;;;19.98;77.73;100121.81;5053339;28;20381;-77
2021/08/26 09:48:07;;;;;;;5.90;1.17;;;;;;;18.92;81.44;100118.75;5054011;28;20036;-78
2021/08/26 09:50:44;;;;;;;8.63;1.30;;;;;;;20.05;73.70;100117.00;5054158;28;20025;-77
2021/08/26 09:53:12;;;;;;;6.90;1.50;;;;;;;20.35;72.84;100116.78;5053876;28;20036;-77
2021/08/26 09:55:58;;;;;;;8.95;1.63;;;;;;;21.13;69.07;100121.22;5053928;28;20082;-77
2021/08/26 09:58:26;;;;;;;6.75;1.48;;;;;;;21.77;64.72;100115.88;5053851;28;20105;-77
2021/08/26 10:01:18;;;;;;;7.50;1.30;;;;;;;20.05;70.49;100121.41;5053655;28;20032;-78
2021/08/26 10:03:44;;;;;;;7.22;1.80;;;;;;;17.88;82.75;100118.53;5052426;28;20056;-77
2021/08/26 10:06:13;;;;;;;7.25;1.27;;;;;;;20.08;67.91;100124.69;5053626;28;20099;-77
2021/08/26 10:08:42;;;;;;;8.70;1.30;;;;;;;18.61;75.82;100118.75;5053522;28;20043;-78
2021/08/26 10:11:09;;;;;;;4.63;1.20;;;;;;;20.12;70.09;100110.38;5053599;28;20396;-77
2021/08/26 10:13:35;;;;;;;6.60;1.67;;;;;;;19.61;69.77;100102.22;5052243;28;20094;-77
2021/08/26 10:16:01;;;;;;;13.30;2.28;;;;;;;20.24;69.76;100101.66;5053254;28;20021;-77
2021/08/26 10:18:29;;;;;;;7.43;1.27;;;;;;;20.99;65.68;100106.34;5053479;28;20147;-77
2021/08/26 10:20:56;;;;;;;6.53;1.23;;;;;;;20.61;68.88;100115.06;5053511;28;20485;-77
2021/08/26 10:23:23;;;;;;;6.57;1.17;;;;;;;20.50;67.14;100111.41;5053599;28;20075;-77
2021/08/26 10:25:49;;;;;;;6.07;1.00;;;;;;;20.46;65.02;100103.72;5053489;28;20040;-77
2021/08/26 10:28:16;;;;;;;7.50;1.38;;;;;;;18.94;70.52;100107.22;5053618;28;20017;-78
2021/08/26 10:30:42;;;;;;;8.40;1.58;;;;;;;21.11;62.78;100107.28;5051840;28;20370;-78
2021/08/26 10:33:23;;;;;;;9.23;1.35;;;;;;;20.63;63.85;100102.66;5053147;28;20043;-77
2021/08/26 10:35:51;;;;;;;6.38;1.17;;;;;;;18.57;72.32;100108.53;5053275;28;20021;-77
2021/08/26 10:38:21;;;;;;;8.43;1.13;;;;;;;17.09;80.61;100104.47;5053259;28;20438;-77
2021/08/26 10:40:47;;;;;;;4.45;1.13;;;;;;;16.60;85.76;100113.06;5053196;28;20063;-77
2021/08/26 10:43:35;;;;;;;6.93;1.55;;;;;;;16.06;90.88;100117.44;5051850;28;20056;-77
2021/08/26 10:46:01;;;;;;;5.00;1.40;;;;;;;15.68;95.44;100121.91;5053001;28;20033;-77
2021/08/26 10:48:27;;;;;;;7.72;1.10;;;;;;;15.63;96.57;100127.28;5054251;28;20040;-77
2021/08/26 10:51:14;;;;;;;7.47;1.40;;;;;;;15.54;95.57;100122.47;5053643;28;20100;-78
2021/08/26 10:53:43;;;;;;;6.32;1.00;;;;;;;16.98;90.04;100128.63;5053374;28;20025;-78
2021/08/26 10:56:29;;;;;;;7.15;1.20;;;;;;;17.44;84.44;100123.59;5054272;28;20079;-78
2021/08/26 10:58:59;;;;;;;5.40;1.17;;;;;;;19.94;70.95;100128.19;5057432;28;20032;-78
2021/08/26 11:01:28;;;;;;;5.70;1.00;;;;;;;19.20;71.62;100117.94;5056203;28;20021;-78
2021/08/26 11:03:56;;;;;;;5.80;1.42;;;;;;;18.48;75.02;100115.16;5057250;28;20020;-78
2021/08/26 11:06:22;;;;;;;3.92;0.65;;;;;;;17.78;77.03;100113.91;5057237;28;20079;-77
2021/08/26 11:08:52;;;;;;;7.25;0.95;;;;;;;16.84;83.82;100129.34;5055889;28;20029;-77
2021/08/26 11:11:32;;;;;;;5.22;1.10;;;;;;;17.29;80.89;100127.84;5056933;28;20021;-77
2021/08/26 11:14:03;;;;;;;6.05;1.38;;;;;;;17.29;79.16;100138.34;5055882;28;20024;-77
2021/08/26 11:16:28;;;;;;;7.78;1.00;;;;;;;16.87;84.40;100139.66;5056905;28;20037;-77